Time;durP1;ratioP1;P1;durP2;ratioP2;P2;SDS_P1;SDS_P2;PMS_P1;PMS_P2;Temp;Humidity;BMP_temperature;BMP_pressure;BME280_temperature;BME280_humidity;BME280_pressure;Samples;Min_cycle;Max_cycle;Signal;HPM_P1;HPM_P2
2022/06/20 00:00:30;;;;;;;13.13;6.10;;;22.60;90.00;;;22.62;77.86;96470.28;4981194;28;20119;-45
2022/06/20 00:03:00;;;;;;;14.10;6.85;;;22.60;90.20;;;22.62;77.37;96475.66;4980661;28;20038;-45
2022/06/20 00:05:31;;;;;;;9.25;5.95;;;22.60;90.20;;;22.58;77.66;96473.47;4978331;28;20030;-43
2022/06/20 00:07:57;;;;;;;9.90;6.13;;;22.60;90.40;;;22.53;78.29;96465.84;4985551;28;20030;-46
2022/06/20 00:10:26;;;;;;;10.77;5.68;;;22.50;90.50;;;22.52;77.82;96466.00;4983941;28;20029;-44
2022/06/20 00:12:53;;;;;;;10.90;5.78;;;22.50;90.50;;;22.46;78.48;96465.59;4979256;28;20130;-45
2022/06/20 00:15:31;;;;;;;8.52;6.05;;;22.40;90.70;;;22.47;78.20;96467.31;4963969;28;20042;-43
2022/06/20 00:17:58;;;;;;;7.75;4.80;;;22.40;90.70;;;22.44;78.37;96470.28;4982663;28;20045;-42
2022/06/20 00:20:24;;;;;;;9.45;5.45;;;22.40;90.90;;;22.43;78.66;96460.56;4983389;28;20033;-46
2022/06/20 00:22:50;;;;;;;9.50;5.53;;;22.40;91.00;;;22.39;79.53;96455.63;4985388;28;20560;-44
2022/06/20 00:25:16;;;;;;;16.08;6.50;;;22.30;91.20;;;22.31;80.06;96445.66;4983148;28;20117;-43
2022/06/20 00:27:46;;;;;;;11.32;5.70;;;22.20;91.40;;;22.32;80.36;96450.03;4976767;28;20022;-42
2022/06/20 00:30:15;;;;;;;8.18;5.63;;;22.20;91.60;;;22.29;80.63;96450.34;4966373;28;20030;-44
2022/06/20 00:32:41;;;;;;;9.40;5.70;;;22.20;91.80;;;22.27;80.51;96450.50;4979686;28;20478;-43
2022/06/20 00:35:08;;;;;;;9.90;5.50;;;22.20;91.80;;;22.30;80.09;96449.34;4980207;28;20529;-47
2022/06/20 00:37:34;;;;;;;8.98;5.63;;;22.20;91.80;;;22.32;80.26;96454.56;4976254;28;20117;-47
2022/06/20 00:40:00;;;;;;;15.80;6.60;;;22.20;91.80;;;22.36;80.40;96453.25;4959411;28;20862;-46
2022/06/20 00:42:27;;;;;;;11.30;5.80;;;22.30;91.90;;;22.44;79.76;96458.72;4978469;28;20038;-45
2022/06/20 00:45:01;;;;;;;9.07;5.63;;;22.40;92.10;;;22.46;79.71;96468.28;4973410;28;20113;-47
2022/06/20 00:47:33;;;;;;;11.65;6.25;;;22.40;91.70;;;22.52;79.20;96482.94;4961393;28;20029;-44
2022/06/20 00:50:11;;;;;;;11.32;6.38;;;22.50;91.70;;;22.56;79.07;96492.41;4968458;28;20043;-46
2022/06/20 00:53:18;;;;;;;10.23;6.75;;;22.50;91.70;;;22.62;77.81;96497.16;4964450;28;20029;-46
2022/06/20 00:55:53;;;;;;;11.93;6.13;;;22.50;91.40;;;22.68;76.81;96498.38;4975842;28;20556;-45
2022/06/20 00:58:50;;;;;;;13.82;7.20;;;22.60;91.10;;;22.77;76.26;96499.28;4960494;28;20128;-42
2022/06/20 01:01:21;;;;;;;13.55;6.95;;;22.60;91.00;;;22.84;78.33;96492.31;4960650;28;20604;-42
2022/06/20 01:03:54;;;;;;;8.45;5.90;;;22.70;91.50;;;22.87;81.75;96475.88;4981167;28;20061;-42
2022/06/20 01:06:25;;;;;;;13.65;6.90;;;22.80;92.20;;;22.79;85.61;96486.53;4974347;28;20540;-43
2022/06/20 01:08:57;;;;;;;9.93;6.22;;;22.70;93.50;;;22.66;91.01;96479.72;4980005;28;20042;-46
2022/06/20 01:11:29;;;;;;;10.68;7.07;;;22.60;95.20;;;22.53;96.67;96471.22;4964148;28;20357;-44
2022/06/20 01:13:55;;;;;;;11.10;6.90;;;22.40;96.90;;;22.35;99.90;96470.38;4961399;28;20519;-46
2022/06/20 01:16:31;;;;;;;9.45;6.97;;;22.30;98.20;;;22.15;100.00;96475.84;4978304;28;20467;-45
2022/06/20 01:19:00;;;;;;;13.48;7.47;;;22.10;99.90;;;21.91;100.00;96476.41;4971976;28;20070;-46
2022/06/20 01:21:33;;;;;;;14.13;7.72;;;21.90;99.90;;;21.63;100.00;96468.38;4960170;28;20120;-46
2022/06/20 01:24:29;;;;;;;12.07;8.48;;;21.60;99.90;;;21.44;100.00;96484.50;4978599;28;20027;-45
2022/06/20 01:27:29;;;;;;;12.38;8.43;;;21.40;99.90;;;21.20;100.00;96469.75;4982436;28;20060;-45
2022/06/20 01:29:55;;;;;;;11.45;8.50;;;21.20;99.90;;;21.09;100.00;96469.94;4982548;28;20490;-45
2022/06/20 01:32:21;;;;;;;10.85;8.18;;;21.10;99.90;;;20.95;100.00;96463.19;4983537;28;20049;-42
2022/06/20 01:34:47;;;;;;;11.55;8.15;;;20.90;99.90;;;20.85;100.00;96470.41;4972011;28;20035;-44
2022/06/20 01:37:29;;;;;;;10.88;8.13;;;20.80;99.90;;;20.75;100.00;96463.22;4957624;28;20486;-43
2022/06/20 01:40:10;;;;;;;12.63;7.55;;;20.80;99.90;;;20.59;100.00;96446.84;4981764;28;20038;-44
2022/06/20 01:42:38;;;;;;;13.82;8.00;;;20.60;99.90;;;20.49;100.00;96446.84;4981427;28;20041;-46
2022/06/20 01:48:13;;;;;;;12.93;8.18;;;20.40;99.90;;;20.37;100.00;96459.53;4981098;28;20165;-47
2022/06/20 01:50:40;;;;;;;12.07;7.45;;;20.40;99.90;;;20.34;100.00;96456.31;4971319;28;20091;-47
2022/06/20 01:53:08;;;;;;;12.38;7.68;;;20.30;99.90;;;20.28;100.00;96457.72;4984850;28;20081;-42
2022/06/20 01:55:35;;;;;;;10.57;7.97;;;20.30;99.90;;;20.31;100.00;96459.25;4963581;28;20038;-43
2022/06/20 01:58:24;;;;;;;11.30;7.50;;;20.30;99.90;;;20.32;100.00;96460.97;4984537;28;20496;-44
2022/06/20 02:00:50;;;;;;;12.75;7.75;;;20.30;99.90;;;20.35;100.00;96460.66;4983712;28;20037;-45
2022/06/20 02:03:19;;;;;;;14.82;8.35;;;20.40;99.90;;;20.40;100.00;96464.63;4988244;28;20034;-42
2022/06/20 02:05:49;;;;;;;11.02;8.13;;;20.40;99.90;;;20.46;100.00;96471.25;4979790;28;20030;-46
2022/06/20 02:08:19;;;;;;;15.77;8.32;;;20.40;99.90;;;20.51;100.00;96465.44;4964809;28;20038;-45
2022/06/20 02:11:21;;;;;;;9.07;7.95;;;20.50;99.90;;;20.59;100.00;96474.47;4983960;28;20033;-47
2022/06/20 02:13:51;;;;;;;16.23;8.57;;;20.60;99.90;;;20.65;100.00;96457.03;4963110;28;20046;-43
2022/06/20 02:16:20;;;;;;;14.93;8.05;;;20.60;99.90;;;20.68;100.00;96450.56;4987888;28;20541;-45
2022/06/20 02:18:49;;;;;;;15.40;8.45;;;20.70;99.90;;;20.78;100.00;96446.88;4971675;28;20791;-46
2022/06/20 02:21:21;;;;;;;12.07;8.05;;;20.80;99.90;;;20.82;100.00;96442.06;4964130;28;20129;-46
2022/06/20 02:23:49;;;;;;;;;;;20.80;99.90;;;20.84;100.00;96436.56;4961747;28;20041;-43
2022/06/20 02:26:17;;;;;;;12.43;7.57;;;20.90;99.90;;;20.88;100.00;96440.66;4984221;28;19932;-43
2022/06/20 02:29:08;;;;;;;13.13;7.07;;;20.90;99.90;;;20.89;100.00;96442.31;4980521;28;20620;-44
2022/06/20 02:31:34;;;;;;;13.40;8.38;;;20.90;99.90;;;20.82;100.00;96425.13;4981861;28;20046;-45
2022/06/20 02:34:01;;;;;;;16.67;8.65;;;20.90;99.90;;;20.91;100.00;96429.66;4968885;28;20604;-43
2022/06/20 02:36:28;;;;;;;11.88;7.60;;;20.90;99.90;;;20.95;100.00;96437.22;4967437;28;20034;-44
2022/06/20 02:38:54;;;;;;;13.90;8.25;;;20.90;99.90;;;20.97;100.00;96445.13;4956520;28;20030;-44
2022/06/20 02:41:23;;;;;;;13.55;8.48;;;21.00;99.90;;;20.95;100.00;96442.59;4977990;28;20517;-44
2022/06/20 02:44:05;;;;;;;14.50;8.52;;;21.00;99.90;;;20.96;100.00;96448.78;4967775;28;20033;-47
2022/06/20 02:46:31;;;;;;;12.35;8.45;;;20.90;99.90;;;20.95;100.00;96469.38;4968776;28;20554;-44
2022/06/20 02:49:02;;;;;;;16.88;9.40;;;20.90;99.90;;;20.95;100.00;96476.59;4980624;28;20025;-46
2022/06/20 02:51:36;;;;;;;17.50;8.73;;;20.90;99.90;;;20.95;100.00;96479.28;4967932;28;20026;-47
2022/06/20 02:54:05;;;;;;;15.40;8.93;;;20.90;99.90;;;20.96;100.00;96467.56;4977150;28;20042;-45
2022/06/20 02:56:38;;;;;;;13.55;8.45;;;21.00;99.90;;;20.98;100.00;96466.44;4954347;28;20026;-43
2022/06/20 02:59:15;;;;;;;12.55;7.90;;;21.00;99.90;;;21.03;100.00;96462.47;4968353;28;20493;-44
2022/06/20 03:01:57;;;;;;;13.30;8.70;;;21.00;99.90;;;21.04;100.00;96472.22;4963848;28;20458;-45
2022/06/20 03:04:23;;;;;;;9.93;7.32;;;21.00;99.90;;;21.04;100.00;96473.03;4977644;28;20114;-44
2022/06/20 03:07:09;;;;;;;10.18;7.35;;;21.00;99.90;;;21.00;100.00;96471.66;4979576;28;20053;-44
2022/06/20 03:09:39;;;;;;;14.10;7.43;;;21.00;99.90;;;20.98;100.00;96481.69;4969316;28;20109;-46
2022/06/20 03:12:07;;;;;;;18.40;7.43;;;21.00;99.90;;;20.94;100.00;96480.25;4961868;28;20674;-47
2022/06/20 03:14:55;;;;;;;14.00;7.18;;;21.00;99.90;;;20.92;100.00;96484.91;4985510;28;20394;-44
2022/06/20 03:17:23;;;;;;;19.73;7.30;;;20.90;99.90;;;20.83;100.00;96489.28;4966254;28;20502;-43
2022/06/20 03:19:53;;;;;;;14.35;6.78;;;20.90;99.90;;;20.75;100.00;96495.38;4986511;28;20557;-43
2022/06/20 03:22:23;;;;;;;17.67;7.22;;;20.80;99.90;;;20.68;100.00;96496.94;4989215;28;20058;-44
2022/06/20 03:24:51;;;;;;;13.98;6.22;;;20.70;99.90;;;20.60;100.00;96491.38;4964702;28;20541;-41
2022/06/20 03:27:27;;;;;;;11.35;5.68;;;20.60;99.90;;;20.65;100.00;96501.72;4989730;28;20034;-42
2022/06/20 03:29:59;;;;;;;16.33;5.88;;;20.70;99.90;;;20.62;100.00;96516.25;4985624;28;20114;-42
2022/06/20 03:32:26;;;;;;;14.00;6.60;;;20.60;99.90;;;20.57;100.00;96539.91;4964399;28;20065;-42
2022/06/20 03:34:53;;;;;;;11.25;6.57;;;20.60;99.90;;;20.53;100.00;96559.91;4961324;28;20042;-41
2022/06/20 03:37:20;;;;;;;11.15;6.63;;;20.60;99.90;;;20.41;100.00;96565.38;4986608;28;20080;-42
2022/06/20 03:39:47;;;;;;;18.85;7.20;;;20.50;99.90;;;20.26;100.00;96580.16;4976419;28;20033;-43
2022/06/20 03:42:15;;;;;;;16.15;8.85;;;20.30;99.90;;;20.08;100.00;96587.13;4981070;28;20038;-45
2022/06/20 03:44:52;;;;;;;12.90;8.20;;;20.20;99.90;;;19.85;100.00;96606.06;4962913;28;20062;-43
2022/06/20 03:47:31;;;;;;;17.52;9.23;;;19.90;99.90;;;19.60;100.00;96605.47;4966721;28;20517;-45
2022/06/20 03:50:07;;;;;;;18.88;10.50;;;19.70;99.90;;;19.40;100.00;96585.81;4986589;28;20038;-44
2022/06/20 03:52:57;;;;;;;25.10;11.63;;;19.50;99.90;;;19.22;100.00;96588.22;4963974;28;20053;-45
2022/06/20 03:55:34;;;;;;;21.95;11.68;;;19.30;99.90;;;19.05;100.00;96581.63;4967077;28;20141;-42
2022/06/20 03:58:32;;;;;;;23.85;10.63;;;19.20;99.90;;;18.87;100.00;96586.69;4984305;28;20041;-42
2022/06/20 04:01:10;;;;;;;20.90;10.85;;;19.00;99.90;;;18.66;100.00;96583.09;5027104;22;21041;-38
2022/06/20 04:03:51;;;;;;;18.23;10.77;;;18.80;99.90;;;18.63;100.00;96610.06;5004333;28;20039;-38
2022/06/20 04:06:29;;;;;;;20.45;11.38;;;18.70;99.90;;;18.47;100.00;96642.50;5026163;28;20033;-39
2022/06/20 04:12:22;;;;;;;15.32;10.05;;;18.60;99.90;;;18.29;100.00;96631.50;5030105;28;20083;-39
2022/06/20 04:14:55;;;;;;;15.07;8.48;;;18.40;99.90;;;18.24;100.00;96641.69;5031521;28;20071;-39
2022/06/20 04:20:45;;;;;;;17.27;10.13;;;18.30;99.90;;;18.20;100.00;96630.41;5034107;28;20044;-39
2022/06/20 04:23:43;;;;;;;22.98;10.93;;;18.30;99.90;;;18.16;100.00;96633.44;5033065;28;20033;-39
2022/06/20 04:26:17;;;;;;;21.38;11.55;;;18.30;99.90;;;18.26;100.00;96643.25;5025194;28;20071;-39
2022/06/20 04:29:14;;;;;;;18.52;10.15;;;18.30;99.90;;;18.22;100.00;96627.63;5016660;28;20021;-39
2022/06/20 04:32:29;;;;;;;16.80;8.77;;;18.30;99.90;;;18.18;100.00;96639.47;5011410;28;20024;-39
2022/06/20 04:35:00;;;;;;;16.15;8.73;;;18.30;99.90;;;18.12;100.00;96655.03;5011824;28;20029;-38
2022/06/20 04:37:37;;;;;;;19.40;9.38;;;18.30;99.90;;;18.12;100.00;96681.72;5007940;28;20032;-39
2022/06/20 04:40:22;;;;;;;15.93;8.60;;;18.30;99.90;;;18.25;100.00;96686.94;5004025;28;20052;-39
2022/06/20 04:43:09;;;;;;;14.48;7.35;;;18.30;99.90;;;18.32;100.00;96697.94;5018815;28;20252;-39
2022/06/20 04:45:59;;;;;;;12.63;8.23;;;18.40;99.90;;;18.39;100.00;96698.31;4992807;28;20511;-39
2022/06/20 04:48:25;;;;;;;17.17;9.23;;;18.50;99.90;;;18.43;100.00;96681.94;5002496;28;20047;-39
2022/06/20 04:50:57;;;;;;;12.75;7.15;;;18.50;99.90;;;18.46;100.00;96660.31;5030160;28;20035;-39
2022/06/20 04:53:45;;;;;;;18.95;9.35;;;18.50;99.90;;;18.41;100.00;96633.19;5009237;28;21496;-39
2022/06/20 04:56:15;;;;;;;13.93;8.38;;;18.50;99.90;;;18.42;100.00;96621.50;5035943;28;20348;-39
2022/06/20 04:58:48;;;;;;;16.65;8.30;;;18.50;99.90;;;18.43;100.00;96625.88;5035350;28;20168;-39
2022/06/20 05:01:16;;;;;;;16.17;8.75;;;18.50;99.90;;;18.44;100.00;96624.91;5031739;28;20120;-38
2022/06/20 05:03:55;;;;;;;16.80;8.60;;;18.50;99.90;;;18.48;100.00;96637.03;5029653;28;20075;-39
2022/06/20 05:06:33;;;;;;;15.02;8.10;;;18.50;99.90;;;18.56;100.00;96646.25;5017074;28;20037;-39
2022/06/20 05:09:25;;;;;;;12.70;7.22;;;18.60;99.90;;;18.74;100.00;96670.63;5030037;28;20508;-38
2022/06/20 05:12:02;;;;;;;13.13;7.55;;;18.80;99.90;;;18.84;100.00;96667.09;5028571;28;20497;-39
2022/06/20 05:14:48;;;;;;;10.80;7.03;;;18.90;99.90;;;18.94;100.00;96661.00;5017844;28;20210;-38
2022/06/20 05:17:23;;;;;;;14.52;7.38;;;19.00;99.90;;;19.05;100.00;96660.94;5028510;28;20047;-39
2022/06/20 05:19:54;;;;;;;13.45;7.10;;;19.10;99.90;;;19.11;100.00;96665.75;5009491;28;20048;-38
2022/06/20 05:22:30;;;;;;;10.80;6.35;;;19.20;99.90;;;19.19;100.00;96662.47;5021370;28;20094;-39
2022/06/20 05:24:59;;;;;;;9.48;5.90;;;19.20;99.90;;;19.20;100.00;96648.97;5037694;28;20032;-39
2022/06/20 05:27:37;;;;;;;9.13;5.75;;;19.30;99.90;;;19.31;100.00;96639.19;5035519;28;20032;-39
2022/06/20 05:30:07;;;;;;;12.55;5.53;;;19.40;99.90;;;19.38;100.00;96649.25;5040423;28;20036;-39
2022/06/20 05:32:45;;;;;;;14.95;7.28;;;19.40;99.90;;;19.39;100.00;96650.09;5034146;28;20029;-39
2022/06/20 05:35:27;;;;;;;13.60;6.97;;;19.50;99.90;;;19.35;100.00;96670.06;5015991;28;20593;-39
2022/06/20 05:37:57;;;;;;;11.85;6.13;;;19.40;99.90;;;19.31;100.00;96676.63;5039477;28;20134;-39
2022/06/20 05:40:29;;;;;;;8.88;5.43;;;19.40;99.90;;;19.35;100.00;96675.41;5021248;28;20572;-39
2022/06/20 05:42:55;;;;;;;13.02;6.10;;;19.40;99.90;;;19.39;100.00;96700.91;5035630;28;20060;-39
2022/06/20 05:45:24;;;;;;;8.73;5.28;;;19.50;99.90;;;19.45;100.00;96708.38;5035294;28;20145;-39
2022/06/20 05:47:53;;;;;;;8.20;5.25;;;19.50;99.90;;;19.42;100.00;96700.66;5037239;28;20029;-38
2022/06/20 05:50:40;;;;;;;6.43;5.05;;;19.50;99.90;;;19.53;100.00;96703.25;5022915;28;20035;-39
2022/06/20 05:53:13;;;;;;;12.40;6.65;;;19.60;99.90;;;19.63;100.00;96695.28;5037788;28;20272;-39
2022/06/20 05:55:48;;;;;;;11.20;7.78;;;19.70;99.90;;;19.70;100.00;96699.13;5016870;28;20033;-39
2022/06/20 05:58:20;;;;;;;13.80;6.28;;;19.80;99.90;;;19.79;100.00;96702.91;5037651;28;20037;-39
2022/06/20 06:00:47;;;;;;;;;;;19.90;99.90;;;19.88;100.00;96707.44;5033923;28;20279;-39
2022/06/20 06:03:22;;;;;;;12.68;5.75;;;20.00;99.90;;;20.07;100.00;96714.75;5034515;28;19916;-39
2022/06/20 06:05:57;;;;;;;11.88;6.07;;;20.10;99.90;;;20.26;100.00;96719.38;5034502;28;20025;-38
2022/06/20 06:08:42;;;;;;;11.45;6.50;;;20.30;99.90;;;20.38;100.00;96712.91;5036503;28;20126;-39
2022/06/20 06:11:34;;;;;;;7.65;5.88;;;20.40;99.90;;;20.51;100.00;96695.78;5034937;28;20048;-39
2022/06/20 06:14:39;;;;;;;8.13;5.30;;;20.50;99.90;;;20.61;100.00;96685.97;5038321;28;20051;-39
2022/06/20 06:17:25;;;;;;;13.35;7.80;;;20.60;99.90;;;20.64;100.00;96707.16;5018289;28;20041;-39
2022/06/20 06:19:58;;;;;;;13.77;6.30;;;20.70;99.90;;;20.70;100.00;96701.22;5037522;28;20135;-39
2022/06/20 06:22:37;;;;;;;8.95;6.50;;;20.70;99.90;;;20.77;100.00;96710.41;5017078;28;20488;-39
2022/06/20 06:25:30;;;;;;;10.90;6.05;;;20.80;99.90;;;20.87;100.00;96705.09;5035088;28;20074;-39
2022/06/20 06:28:01;;;;;;;12.38;6.15;;;20.80;99.90;;;20.93;100.00;96711.75;5036466;28;20058;-39
2022/06/20 06:31:14;;;;;;;13.40;7.90;;;20.90;99.90;;;20.83;100.00;96700.97;5023317;28;20098;-39
2022/06/20 06:33:51;;;;;;;9.55;6.30;;;20.90;99.90;;;20.76;100.00;96705.19;4960593;28;20082;-39
2022/06/20 06:36:30;;;;;;;9.15;6.15;;;20.70;99.90;;;20.67;100.00;96690.78;5032574;28;20470;-39
2022/06/20 06:39:04;;;;;;;12.02;6.53;;;20.70;99.90;;;20.71;100.00;96705.63;5036794;28;20158;-39
2022/06/20 06:41:35;;;;;;;10.95;5.85;;;20.60;99.90;;;20.76;100.00;96708.75;5032757;28;20387;-39
2022/06/20 06:44:06;;;;;;;12.13;7.18;;;20.70;99.90;;;20.92;100.00;96715.38;5019873;28;20033;-39
2022/06/20 06:46:39;;;;;;;11.67;6.93;;;20.80;99.90;;;21.00;100.00;96720.03;5019852;28;20151;-39
2022/06/20 06:49:25;;;;;;;13.02;6.95;;;20.90;99.90;;;21.09;100.00;96719.25;5034105;28;20029;-39
2022/06/20 06:52:02;;;;;;;15.23;7.43;;;20.90;99.90;;;21.05;100.00;96725.84;5035935;28;20044;-39
2022/06/20 06:54:52;;;;;;;11.77;6.47;;;21.10;99.90;;;21.20;100.00;96715.59;5034679;28;20566;-39
2022/06/20 06:57:36;;;;;;;13.20;7.15;;;21.10;99.90;;;21.13;100.00;96724.16;5018419;28;20041;-39
2022/06/20 07:00:05;;;;;;;13.55;6.55;;;21.00;99.90;;;21.04;100.00;96730.38;5034040;28;20040;-39
2022/06/20 07:03:08;;;;;;;14.80;7.05;;;20.90;99.90;;;21.02;100.00;96734.19;5037536;28;20036;-39
2022/06/20 07:05:40;;;;;;;10.30;6.50;;;20.90;99.90;;;20.98;100.00;96710.34;5016029;28;20036;-39
2022/06/20 07:08:24;;;;;;;7.60;5.75;;;20.90;99.90;;;21.35;100.00;96736.50;5032886;28;20025;-39
2022/06/20 07:11:07;;;;;;;10.95;7.22;;;21.20;99.90;;;21.60;100.00;96736.09;5033823;28;20041;-39
2022/06/20 07:14:06;;;;;;;9.80;5.65;;;21.50;99.90;;;21.80;100.00;96743.13;5033094;28;20043;-39
2022/06/20 07:16:44;;;;;;;12.60;6.10;;;21.60;99.90;;;21.95;100.00;96740.00;5014597;28;20040;-39
2022/06/20 07:19:12;;;;;;;10.82;5.60;;;21.90;99.90;;;22.04;100.00;96740.00;5033616;28;20044;-39
2022/06/20 07:21:42;;;;;;;10.52;6.30;;;22.00;99.90;;;22.22;100.00;96744.63;5036329;28;20102;-39
2022/06/20 07:24:14;;;;;;;17.23;6.80;;;22.20;99.90;;;22.27;100.00;96735.19;5035562;28;20067;-39
2022/06/20 07:27:11;;;;;;;7.53;5.10;;;22.30;99.90;;;22.52;100.00;96734.66;5012172;28;20405;-39
2022/06/20 07:29:48;;;;;;;13.98;5.90;;;22.40;99.90;;;22.66;100.00;96745.75;5023018;28;20049;-39
2022/06/20 07:32:21;;;;;;;8.15;4.90;;;22.60;99.90;;;22.91;100.00;96740.69;5004211;28;20124;-39
2022/06/20 07:34:58;;;;;;;8.30;5.03;;;22.80;99.90;;;23.08;100.00;96731.03;5011200;28;20028;-39
2022/06/20 07:37:59;;;;;;;13.73;5.30;;;23.00;99.90;;;23.31;99.09;96741.34;5031885;28;20037;-39
2022/06/20 07:40:32;;;;;;;9.00;5.93;;;23.20;99.90;;;23.37;98.73;96720.06;5016009;28;20595;-39
2022/06/20 07:43:17;;;;;;;10.73;5.65;;;23.30;99.90;;;23.49;97.20;96744.03;5037529;28;20503;-39
2022/06/20 07:45:49;;;;;;;12.20;5.57;;;23.40;99.90;;;23.57;91.16;96738.75;5035207;28;20067;-38
2022/06/20 07:48:24;;;;;;;10.40;5.40;;;23.50;99.90;;;23.73;93.90;96754.19;5037375;28;20022;-39
2022/06/20 07:50:54;;;;;;;10.57;4.93;;;23.60;99.90;;;23.85;92.50;96736.84;5021817;28;20049;-39
2022/06/20 07:53:32;;;;;;;11.80;5.80;;;23.70;99.90;;;23.92;91.62;96753.19;5039745;28;20489;-39
2022/06/20 07:56:05;;;;;;;10.38;5.68;;;23.80;99.90;;;23.92;94.00;96745.97;5040575;28;20429;-39
2022/06/20 07:58:40;;;;;;;10.88;5.70;;;23.80;99.90;;;23.97;88.83;96757.09;5035444;28;20025;-39
2022/06/20 08:01:22;;;;;;;14.48;5.57;;;23.90;99.90;;;24.08;90.02;96761.41;5023528;28;20167;-39
2022/06/20 08:03:55;;;;;;;7.50;5.13;;;24.00;99.90;;;24.22;90.49;96762.69;5048367;28;20048;-39
2022/06/20 08:06:35;;;;;;;9.00;5.45;;;24.10;99.90;;;24.25;87.77;96742.69;5024531;28;20060;-39
2022/06/20 08:09:22;;;;;;;12.73;5.82;;;24.30;99.90;;;24.37;84.17;96763.81;5020832;28;20488;-39
2022/06/20 08:12:00;;;;;;;16.42;5.60;;;24.40;99.90;;;24.39;92.25;96758.25;5047098;28;20296;-39
2022/06/20 08:14:33;;;;;;;15.70;6.38;;;24.40;99.90;;;24.12;96.26;96767.31;5047918;28;20083;-39
2022/06/20 08:17:04;;;;;;;10.38;5.47;;;24.30;99.90;;;24.03;87.33;96761.03;5040185;28;20124;-39
2022/06/20 08:19:31;;;;;;;10.40;5.63;;;24.20;99.90;;;23.96;91.24;96760.81;5041732;28;21015;-39
2022/06/20 08:22:05;;;;;;;10.85;5.25;;;24.10;99.90;;;23.96;92.11;96757.28;5025826;28;20052;-39
2022/06/20 08:24:54;;;;;;;13.07;5.97;;;24.10;99.90;;;24.11;87.03;96758.41;5040368;28;20555;-39
2022/06/20 08:27:41;;;;;;;11.45;5.53;;;24.10;99.90;;;23.88;79.44;96766.13;5041949;28;20515;-39
2022/06/20 08:30:13;;;;;;;7.72;5.45;;;24.00;99.90;;;23.81;85.22;96771.31;5043520;28;20082;-39
2022/06/20 08:33:22;;;;;;;11.80;5.28;;;23.90;99.90;;;23.73;82.35;96768.50;5038292;28;20632;-39
2022/06/20 08:36:01;;;;;;;8.48;5.22;;;23.90;99.90;;;23.87;80.98;96763.59;5042584;28;20518;-39
2022/06/20 08:38:32;;;;;;;10.65;5.93;;;23.90;99.90;;;23.91;79.88;96786.53;5043545;28;20443;-39
2022/06/20 08:41:18;;;;;;;8.95;5.32;;;24.00;99.90;;;23.97;77.03;96786.72;5024447;28;20629;-39
2022/06/20 08:43:53;;;;;;;11.95;5.55;;;24.00;99.90;;;24.00;79.59;96794.50;5029629;28;20495;-39
2022/06/20 08:46:42;;;;;;;10.55;5.70;;;24.10;99.90;;;24.08;73.99;96787.50;5024507;28;20118;-39
2022/06/20 08:49:37;;;;;;;14.13;5.28;;;24.20;99.90;;;24.26;70.34;96792.84;5024653;28;20036;-39
2022/06/20 08:52:42;;;;;;;12.65;5.30;;;24.30;99.90;;;24.31;68.74;96782.44;5040271;28;20037;-39
2022/06/20 08:56:02;;;;;;;8.27;4.97;;;24.40;99.90;;;24.57;73.47;96788.72;5026843;28;20489;-38
2022/06/20 08:59:05;;;;;;;10.07;5.05;;;24.60;99.90;;;24.81;68.24;96781.75;5026914;28;20033;-40
2022/06/20 09:01:53;;;;;;;13.05;5.78;;;24.80;99.90;;;24.89;68.92;96786.34;5029544;28;20041;-40
2022/06/20 09:04:34;;;;;;;10.40;5.57;;;24.90;99.90;;;24.98;68.62;96788.09;5030878;28;20028;-41
2022/06/20 09:07:06;;;;;;;13.10;6.40;;;25.10;99.90;;;25.07;66.68;96783.56;5047004;28;20061;-41
2022/06/20 09:10:00;;;;;;;12.93;5.13;;;25.10;99.90;;;25.24;66.22;96795.28;5043245;28;20036;-41
2022/06/20 09:12:42;;;;;;;8.75;5.18;;;25.20;99.90;;;25.30;65.66;96795.50;5029953;28;20122;-41
2022/06/20 09:15:37;;;;;;;14.07;5.82;;;25.40;99.90;;;25.41;65.32;96801.59;5027012;28;20094;-41
2022/06/20 09:18:35;;;;;;;8.13;4.88;;;25.40;99.90;;;25.62;66.02;96790.34;5046298;28;20499;-41
2022/06/20 09:21:06;;;;;;;10.73;5.15;;;25.60;99.90;;;25.72;66.32;96791.88;5044889;28;20040;-41
2022/06/20 09:24:11;;;;;;;11.18;5.13;;;25.80;99.90;;;25.77;62.67;96798.63;5027925;28;20040;-41
2022/06/20 09:27:21;;;;;;;14.82;6.47;;;25.90;99.90;;;25.77;65.16;96804.03;5045109;28;20033;-41
2022/06/20 09:30:03;;;;;;;10.75;5.47;;;25.90;99.90;;;25.84;61.97;96796.94;5026854;28;20160;-41
2022/06/20 09:33:22;;;;;;;12.87;5.00;;;25.90;99.90;;;25.95;69.77;96804.78;5038466;28;20029;-40
2022/06/20 09:36:13;;;;;;;9.38;5.30;;;26.10;99.90;;;26.06;61.96;96804.44;5024425;28;20051;-40
2022/06/20 09:39:08;;;;;;;15.25;5.60;;;26.20;99.90;;;26.44;59.58;96803.91;5038159;28;20522;-40
2022/06/20 09:41:57;;;;;;;11.30;5.28;;;26.40;99.90;;;26.78;58.46;96795.59;5032238;28;20187;-41
2022/06/20 09:44:50;;;;;;;12.77;5.80;;;26.90;99.90;;;27.16;58.28;96795.78;5047531;28;20029;-41
2022/06/20 09:47:28;;;;;;;7.88;5.50;;;27.20;99.90;;;27.72;57.11;96787.53;5029185;28;20029;-41
2022/06/20 09:50:09;;;;;;;11.60;5.68;;;27.80;99.80;;;27.96;56.29;96783.00;5043628;28;20067;-40
2022/06/20 09:53:05;;;;;;;11.77;5.80;;;28.20;98.70;;;28.06;54.13;96793.63;5022712;28;20025;-41
2022/06/20 09:55:41;;;;;;;6.90;4.60;;;28.20;97.70;;;27.84;60.95;96789.88;5024719;28;20288;-40
2022/06/20 09:58:51;;;;;;;16.20;5.63;;;28.20;99.50;;;27.64;57.21;96784.91;5048958;28;20056;-40
2022/06/20 10:01:46;;;;;;;9.13;4.80;;;27.90;98.00;;;27.67;55.71;96781.81;5021933;28;20061;-40
2022/06/20 10:04:27;;;;;;;12.45;5.63;;;27.80;98.50;;;27.99;53.61;96788.91;5031040;28;20035;-42
2022/06/20 10:07:27;;;;;;;13.32;5.00;;;28.00;97.30;;;28.35;52.59;96782.88;5056659;22;20058;-40
2022/06/20 10:10:15;;;;;;;14.45;5.60;;;28.40;96.30;;;28.67;51.32;96789.00;5000081;28;20049;-40
2022/06/20 10:12:58;;;;;;;11.68;4.93;;;28.80;95.60;;;28.95;49.92;96791.09;5007628;28;20037;-41
2022/06/20 10:15:48;;;;;;;12.98;5.05;;;29.10;94.10;;;28.83;49.67;96754.59;5010319;28;20567;-40
2022/06/20 10:18:38;;;;;;;11.60;4.70;;;29.30;94.10;;;29.19;49.36;96787.25;5009865;28;20040;-40
2022/06/20 10:21:17;;;;;;;8.00;4.75;;;29.30;94.00;;;29.20;50.68;96779.94;5005506;28;20564;-40
2022/06/20 10:24:31;;;;;;;14.15;5.50;;;29.40;93.70;;;29.05;49.28;96758.22;4986860;28;20115;-40
2022/06/20 10:27:20;;;;;;;11.93;5.28;;;29.30;93.50;;;29.03;49.64;96777.41;4989462;28;20022;-40
2022/06/20 10:30:06;;;;;;;10.70;5.05;;;29.30;93.70;;;28.99;51.22;96781.53;5003952;28;20088;-40
2022/06/20 10:32:43;;;;;;;10.35;4.97;;;29.20;93.80;;;28.92;52.70;96791.44;5004844;28;20129;-41
2022/06/20 10:35:45;;;;;;;9.40;4.72;;;29.10;94.00;;;29.07;48.87;96789.59;4989956;28;20542;-40
2022/06/20 10:38:32;;;;;;;10.23;4.93;;;29.10;93.80;;;28.92;50.25;96784.16;4958912;28;20446;-43
2022/06/20 10:41:13;;;;;;;8.80;5.35;;;29.10;92.90;;;28.73;50.79;96793.69;4999034;28;20046;-42
2022/06/20 10:43:42;;;;;;;14.35;5.25;;;28.90;92.60;;;28.67;50.69;96794.44;4997812;28;20045;-42
2022/06/20 10:46:40;;;;;;;6.95;4.90;;;28.90;93.20;;;28.66;51.42;96792.75;4996481;28;20030;-41
2022/06/20 10:49:23;;;;;;;8.25;4.60;;;28.80;92.80;;;28.13;49.16;96792.69;4992944;28;20026;-42
2022/06/20 10:52:00;;;;;;;10.82;4.45;;;28.50;91.40;;;28.15;54.35;96789.81;4991546;28;20050;-42
2022/06/20 10:54:53;;;;;;;8.02;4.00;;;28.40;93.50;;;28.10;50.16;96786.78;4998339;28;20030;-42
2022/06/20 10:57:44;;;;;;;9.98;4.85;;;28.40;91.40;;;28.16;49.39;96799.63;5001601;28;20099;-42
2022/06/20 11:00:14;;;;;;;5.13;3.75;;;28.40;91.50;;;28.23;45.65;96784.34;4997131;28;20042;-41
2022/06/20 11:03:06;;;;;;;9.18;4.40;;;28.50;89.90;;;28.44;46.06;96804.47;4993587;28;20063;-43
2022/06/20 11:06:11;;;;;;;7.90;4.18;;;28.70;89.60;;;28.67;46.68;96804.44;4995454;28;20121;-42
2022/06/20 11:08:53;;;;;;;11.52;4.00;;;28.80;90.20;;;28.93;47.50;96806.72;4993480;28;20029;-42